Time;durP1;ratioP1;P1;durP2;ratioP2;P2;SDS_P1;SDS_P2;PMS_P1;PMS_P2;Temp;Humidity;BMP_temperature;BMP_pressure;BME280_temperature;BME280_humidity;BME280_pressure;Samples;Min_cycle;Max_cycle;Signal;HPM_P1;HPM_P2
2022/12/06 00:00:45;;;;;;;14.02;7.88;;;;;;;;;;5112088;28;20036;-53
2022/12/06 00:03:11;;;;;;;13.88;8.10;;;;;;;;;;5111162;28;20045;-53
2022/12/06 00:05:37;;;;;;;15.70;8.90;;;;;;;;;;5108903;28;20031;-51
2022/12/06 00:08:03;;;;;;;45.00;16.88;;;;;;;;;;5111186;28;20019;-53
2022/12/06 00:10:29;;;;;;;79.57;28.00;;;;;;;;;;5108206;28;20103;-53
2022/12/06 00:12:56;;;;;;;77.93;28.58;;;;;;;;;;5111222;28;20103;-51
2022/12/06 00:15:22;;;;;;;62.80;23.30;;;;;;;;;;5110974;28;20020;-52
2022/12/06 00:17:48;;;;;;;66.93;25.48;;;;;;;;;;5110955;28;20093;-53
2022/12/06 00:20:14;;;;;;;58.55;24.10;;;;;;;;;;5111661;28;20080;-53
2022/12/06 00:22:44;;;;;;;60.72;23.58;;;;;;;;;;5110601;28;20525;-51
2022/12/06 00:25:10;;;;;;;50.13;21.52;;;;;;;;;;5090636;28;20027;-53
2022/12/06 00:27:36;;;;;;;45.42;18.75;;;;;;;;;;5110523;28;20045;-52
2022/12/06 00:30:03;;;;;;;41.13;18.05;;;;;;;;;;5110953;28;20023;-52
2022/12/06 00:32:29;;;;;;;33.92;15.20;;;;;;;;;;5110115;28;20538;-53
2022/12/06 00:34:55;;;;;;;28.65;13.73;;;;;;;;;;5110611;28;20028;-50
2022/12/06 00:37:21;;;;;;;28.15;12.93;;;;;;;;;;5110284;28;20024;-53
2022/12/06 00:39:47;;;;;;;21.90;11.38;;;;;;;;;;5109207;28;20557;-50
2022/12/06 00:42:13;;;;;;;20.70;11.45;;;;;;;;;;5111245;28;20024;-53
2022/12/06 00:44:39;;;;;;;21.95;11.18;;;;;;;;;;5110214;28;20051;-51
2022/12/06 00:47:05;;;;;;;21.40;10.82;;;;;;;;;;5110528;28;20016;-50
2022/12/06 00:49:31;;;;;;;24.20;12.27;;;;;;;;;;5110242;28;20042;-51
2022/12/06 00:51:57;;;;;;;19.55;10.88;;;;;;;;;;5110322;28;20094;-53
2022/12/06 00:54:23;;;;;;;18.98;10.75;;;;;;;;;;5108381;28;20632;-53
2022/12/06 00:56:49;;;;;;;23.80;12.05;;;;;;;;;;5107919;28;20076;-51
2022/12/06 00:59:15;;;;;;;20.00;11.27;;;;;;;;;;5101785;28;20070;-50
2022/12/06 01:01:41;;;;;;;21.35;11.63;;;;;;;;;;5088498;28;20024;-52
2022/12/06 01:04:08;;;;;;;22.33;12.63;;;;;;;;;;5089092;28;20982;-50
2022/12/06 06:10:39;;;;;;;11.10;6.28;;;;;;;;;;5099157;28;20111;-49
2022/12/06 06:13:05;;;;;;;11.15;6.07;;;;;;;;;;5110668;28;20031;-48
2022/12/06 06:15:33;;;;;;;10.70;6.38;;;;;;;;;;5105917;28;20112;-49
2022/12/06 06:17:58;;;;;;;11.18;6.38;;;;;;;;;;5105696;28;20027;-50
2022/12/06 06:20:24;;;;;;;11.32;7.00;;;;;;;;;;5106591;28;20375;-53
2022/12/06 06:22:50;;;;;;;12.02;7.00;;;;;;;;;;5105188;27;20036;-53
2022/12/06 06:25:16;;;;;;;12.02;7.47;;;;;;;;;;5116018;27;20032;-50
2022/12/06 06:27:42;;;;;;;11.27;6.53;;;;;;;;;;5098783;28;20058;-51
2022/12/06 06:30:11;;;;;;;10.27;6.30;;;;;;;;;;5104136;28;20060;-51
2022/12/06 06:32:37;;;;;;;10.68;6.55;;;;;;;;;;5101329;28;20030;-50
2022/12/06 06:35:04;;;;;;;13.07;7.85;;;;;;;;;;5098103;28;20509;-52
2022/12/06 06:37:31;;;;;;;12.00;7.07;;;;;;;;;;5099722;28;20028;-51
2022/12/06 06:39:58;;;;;;;10.80;6.00;;;;;;;;;;5096908;28;20032;-50
2022/12/06 06:42:24;;;;;;;11.05;6.53;;;;;;;;;;5096198;28;20032;-49
2022/12/06 06:44:53;;;;;;;8.57;5.57;;;;;;;;;;5093239;28;20088;-52
2022/12/06 06:47:19;;;;;;;11.55;6.72;;;;;;;;;;5102359;28;20111;-50
2022/12/06 06:49:45;;;;;;;10.30;5.75;;;;;;;;;;5090950;28;20511;-52
2022/12/06 06:52:11;;;;;;;7.93;5.45;;;;;;;;;;5104972;28;20035;-50
2022/12/06 06:54:37;;;;;;;8.95;5.53;;;;;;;;;;5109774;28;20036;-49
2022/12/06 06:57:03;;;;;;;10.48;6.50;;;;;;;;;;5109955;28;20027;-50
2022/12/06 06:59:29;;;;;;;8.18;5.18;;;;;;;;;;5110955;28;20034;-49
2022/12/06 07:01:55;;;;;;;9.18;5.47;;;;;;;;;;5094089;28;20099;-52
2022/12/06 07:04:21;;;;;;;7.78;4.97;;;;;;;;;;5108077;28;20176;-52
2022/12/06 07:06:47;;;;;;;7.22;4.70;;;;;;;;;;5100153;28;20016;-51
2022/12/06 07:09:13;;;;;;;7.97;4.80;;;;;;;;;;5092549;28;20059;-51
2022/12/06 07:11:39;;;;;;;7.88;4.68;;;;;;;;;;5110071;28;20070;-53
2022/12/06 07:14:05;;;;;;;7.43;4.50;;;;;;;;;;5109212;28;20518;-50
2022/12/06 07:16:31;;;;;;;7.07;4.35;;;;;;;;;;5100529;28;20055;-48
2022/12/06 07:18:57;;;;;;;6.07;3.85;;;;;;;;;;5108557;28;20036;-53
2022/12/06 07:21:23;;;;;;;7.47;4.65;;;;;;;;;;5104199;28;20068;-49
2022/12/06 07:23:49;;;;;;;7.13;4.18;;;;;;;;;;5095847;28;20081;-51
2022/12/06 07:26:17;;;;;;;6.72;4.40;;;;;;;;;;5071143;28;20396;-50
2022/12/06 07:28:44;;;;;;;8.85;4.40;;;;;;;;;;5103135;28;20055;-51
2022/12/06 07:31:20;;;;;;;7.45;4.00;;;;;;;;;;5093111;28;21636;-53
2022/12/06 07:33:47;;;;;;;7.03;4.22;;;;;;;;;;5089685;28;20035;-53
2022/12/06 07:36:13;;;;;;;6.97;4.38;;;;;;;;;;5105973;28;20035;-51
2022/12/06 07:38:39;;;;;;;7.43;4.40;;;;;;;;;;5111346;28;20502;-49
2022/12/06 07:44:59;;;;;;;8.27;4.75;;;;;;;;;;5104406;28;20028;-52
2022/12/06 07:46:35;;;;;;;8.80;5.15;;;;;;;;;;5095871;28;20517;-51
2022/12/06 07:49:01;;;;;;;8.77;4.90;;;;;;;;;;5094352;28;20028;-51
2022/12/06 07:51:27;;;;;;;8.45;4.80;;;;;;;;;;5090836;28;20459;-52
2022/12/06 07:53:54;;;;;;;8.85;5.00;;;;;;;;;;5091105;28;20081;-48
2022/12/06 07:56:20;;;;;;;8.20;5.35;;;;;;;;;;5090796;28;20069;-49
2022/12/06 07:58:46;;;;;;;10.68;5.85;;;;;;;;;;5090940;28;20376;-53
2022/12/06 08:01:12;;;;;;;8.77;5.25;;;;;;;;;;5090791;28;20647;-49
2022/12/06 08:03:38;;;;;;;10.32;5.45;;;;;;;;;;5094829;28;20028;-50
2022/12/06 08:06:04;;;;;;;10.20;5.45;;;;;;;;;;5110025;28;20115;-49
2022/12/06 08:08:30;;;;;;;9.55;5.40;;;;;;;;;;5108571;28;20042;-51
2022/12/06 08:11:00;;;;;;;9.25;5.18;;;;;;;;;;5100550;28;20024;-51
2022/12/06 08:13:26;;;;;;;9.10;5.03;;;;;;;;;;5111102;28;20023;-53
2022/12/06 08:15:52;;;;;;;10.38;5.65;;;;;;;;;;5111224;28;20027;-53
2022/12/06 08:18:18;;;;;;;9.18;4.88;;;;;;;;;;5106693;28;20047;-53
2022/12/06 08:20:44;;;;;;;9.23;5.30;;;;;;;;;;5094577;28;20028;-52
2022/12/06 08:23:10;;;;;;;11.50;6.28;;;;;;;;;;5093771;28;20028;-53
2022/12/06 08:25:36;;;;;;;9.35;5.40;;;;;;;;;;5094227;28;20029;-53
2022/12/06 08:28:02;;;;;;;12.75;7.15;;;;;;;;;;5110731;28;20019;-53
2022/12/06 08:30:29;;;;;;;12.05;6.22;;;;;;;;;;5094152;28;20423;-52
2022/12/06 08:32:55;;;;;;;11.45;6.00;;;;;;;;;;5094515;28;20099;-51
2022/12/06 08:35:21;;;;;;;10.20;5.90;;;;;;;;;;5094119;28;20048;-52
2022/12/06 08:37:47;;;;;;;12.18;6.22;;;;;;;;;;5093461;28;20070;-50
2022/12/06 08:40:13;;;;;;;10.35;5.40;;;;;;;;;;5093051;28;20034;-52
2022/12/06 08:42:40;;;;;;;11.48;6.53;;;;;;;;;;5074951;28;20403;-52
2022/12/06 08:45:07;;;;;;;12.35;6.10;;;;;;;;;;5093178;28;20066;-52
2022/12/06 08:47:33;;;;;;;12.57;6.70;;;;;;;;;;5093078;28;20052;-51
2022/12/06 08:49:59;;;;;;;10.25;5.78;;;;;;;;;;5092994;28;20024;-53
2022/12/06 08:52:25;;;;;;;9.95;5.72;;;;;;;;;;5092970;28;20024;-49
2022/12/06 08:54:51;;;;;;;10.13;5.63;;;;;;;;;;5092913;28;20047;-49
2022/12/06 08:57:17;;;;;;;9.93;5.28;;;;;;;;;;5092877;28;20031;-53
2022/12/06 08:59:43;;;;;;;8.95;5.57;;;;;;;;;;5092669;28;20052;-52
2022/12/06 09:02:10;;;;;;;9.73;5.30;;;;;;;;;;5092619;28;20428;-53
2022/12/06 09:04:36;;;;;;;8.80;4.70;;;;;;;;;;5092514;28;20107;-49
2022/12/06 09:07:02;;;;;;;7.85;4.53;;;;;;;;;;5092638;28;20072;-50
2022/12/06 09:09:28;;;;;;;9.50;5.20;;;;;;;;;;5092931;28;20024;-50
2022/12/06 09:11:54;;;;;;;10.27;5.35;;;;;;;;;;5092561;28;20120;-52
2022/12/06 09:14:20;;;;;;;11.25;5.57;;;;;;;;;;5092594;28;20043;-52
2022/12/06 09:16:46;;;;;;;11.05;5.72;;;;;;;;;;5092346;28;20040;-49
2022/12/06 09:19:13;;;;;;;10.25;5.53;;;;;;;;;;5092279;28;20369;-52
2022/12/06 09:21:41;;;;;;;9.13;5.13;;;;;;;;;;5092286;28;20028;-52
2022/12/06 09:24:09;;;;;;;8.65;4.72;;;;;;;;;;5092097;28;20107;-49
2022/12/06 09:26:36;;;;;;;8.27;5.03;;;;;;;;;;5092242;28;20434;-49
2022/12/06 09:29:02;;;;;;;8.07;4.55;;;;;;;;;;5091226;28;20024;-49
2022/12/06 09:31:28;;;;;;;9.48;4.82;;;;;;;;;;5092340;28;20395;-51
2022/12/06 09:33:54;;;;;;;14.30;6.88;;;;;;;;;;5092189;28;20024;-49
2022/12/06 09:36:27;;;;;;;15.85;7.57;;;;;;;;;;5091849;28;20486;-50
2022/12/06 09:39:14;;;;;;;11.38;6.57;;;;;;;;;;5092029;28;20035;-52
2022/12/06 09:41:59;;;;;;;10.32;5.72;;;;;;;;;;5078175;28;20036;-48
2022/12/06 09:44:43;;;;;;;13.27;6.82;;;;;;;;;;5091777;28;20031;-52
2022/12/06 09:47:35;;;;;;;11.35;5.82;;;;;;;;;;5091788;28;20035;-51
2022/12/06 09:50:01;;;;;;;10.48;5.68;;;;;;;;;;5091987;28;20024;-53
2022/12/06 09:52:27;;;;;;;8.68;5.20;;;;;;;;;;5092067;28;20069;-49
2022/12/06 09:55:07;;;;;;;10.93;5.38;;;;;;;;;;5091669;28;20024;-51
2022/12/06 09:57:33;;;;;;;10.07;5.72;;;;;;;;;;5091603;28;20446;-50
2022/12/06 10:00:04;;;;;;;9.38;5.30;;;;;;;;;;5091826;28;20024;-53
2022/12/06 10:02:48;;;;;;;10.45;5.38;;;;;;;;;;5091779;28;20050;-51
2022/12/06 10:05:29;;;;;;;8.52;4.57;;;;;;;;;;5091321;28;20158;-51
2022/12/06 10:08:14;;;;;;;10.15;5.53;;;;;;;;;;5091465;28;20027;-52
2022/12/06 10:10:40;;;;;;;10.73;5.95;;;;;;;;;;5091398;28;20448;-51
2022/12/06 10:13:26;;;;;;;10.23;5.30;;;;;;;;;;5091377;28;20099;-50
2022/12/06 10:15:59;;;;;;;10.25;5.43;;;;;;;;;;5072764;28;20644;-53
2022/12/06 10:18:25;;;;;;;10.77;5.55;;;;;;;;;;5091292;28;20180;-50
2022/12/06 10:20:52;;;;;;;8.50;5.20;;;;;;;;;;5091438;28;20483;-53
2022/12/06 10:23:26;;;;;;;14.02;8.27;;;;;;;;;;5091071;28;20027;-50
2022/12/06 10:25:52;;;;;;;;;;;;;;;;;;5091599;28;20063;-50
2022/12/06 10:28:32;;;;;;;16.65;8.68;;;;;;;;;;5090974;28;19913;-49
2022/12/06 10:31:03;;;;;;;13.73;7.60;;;;;;;;;;5091253;28;20028;-51
2022/12/06 10:33:49;;;;;;;13.15;7.28;;;;;;;;;;5072895;28;20016;-51
2022/12/06 10:36:18;;;;;;;13.65;6.93;;;;;;;;;;5090795;28;20024;-51
2022/12/06 10:38:51;;;;;;;10.30;6.35;;;;;;;;;;5090781;28;20028;-49
2022/12/06 10:41:20;;;;;;;10.75;6.45;;;;;;;;;;5090614;28;20028;-50
2022/12/06 10:43:52;;;;;;;11.32;6.05;;;;;;;;;;5090778;28;20039;-53
2022/12/06 10:49:58;;;;;;;9.48;5.15;;;;;;;;;;5047739;28;20025;-50
2022/12/06 10:52:24;;;;;;;9.45;5.68;;;;;;;;;;5047844;28;20036;-51
2022/12/06 10:54:52;;;;;;;10.55;6.43;;;;;;;;;;5073655;28;20036;-49
2022/12/06 10:57:21;;;;;;;10.45;5.82;;;;;;;;;;5090582;28;20050;-49
2022/12/06 10:59:53;;;;;;;10.65;5.78;;;;;;;;;;5090449;28;20028;-52
2022/12/06 11:02:34;;;;;;;9.75;5.63;;;;;;;;;;5090679;28;20045;-49
2022/12/06 11:05:01;;;;;;;10.13;5.65;;;;;;;;;;5090577;28;20032;-50
2022/12/06 11:07:34;;;;;;;11.65;5.80;;;;;;;;;;5090475;28;20031;-52
2022/12/06 11:10:00;;;;;;;10.10;5.78;;;;;;;;;;5090493;28;20023;-52
2022/12/06 11:12:35;;;;;;;9.90;6.13;;;;;;;;;;5102015;28;20436;-53
2022/12/06 11:15:04;;;;;;;10.43;6.18;;;;;;;;;;5095795;28;20111;-52
2022/12/06 11:17:33;;;;;;;10.40;5.60;;;;;;;;;;5090941;28;20030;-51
2022/12/06 11:20:00;;;;;;;9.32;5.07;;;;;;;;;;5099381;28;20533;-53
2022/12/06 11:22:36;;;;;;;9.63;5.88;;;;;;;;;;5109574;28;20032;-53
2022/12/06 11:25:05;;;;;;;9.25;5.57;;;;;;;;;;5109222;28;20032;-51
2022/12/06 11:27:38;;;;;;;8.88;5.43;;;;;;;;;;5091469;28;20056;-52
2022/12/06 11:30:12;;;;;;;8.82;5.18;;;;;;;;;;5089372;28;20431;-53
2022/12/06 11:32:38;;;;;;;;;;;;;;;;;;5100299;28;20418;-52
2022/12/06 11:35:04;;;;;;;11.38;6.25;;;;;;;;;;5103754;28;19916;-52
2022/12/06 11:37:31;;;;;;;9.10;6.18;;;;;;;;;;5108522;28;20023;-52
2022/12/06 11:40:14;;;;;;;11.43;6.22;;;;;;;;;;5093758;28;20410;-53
2022/12/06 11:42:40;;;;;;;12.13;7.18;;;;;;;;;;5085499;28;20067;-53
2022/12/06 11:45:10;;;;;;;11.15;6.30;;;;;;;;;;5108701;28;20023;-50
2022/12/06 11:47:37;;;;;;;12.48;7.28;;;;;;;;;;5107999;28;20464;-54
2022/12/06 11:50:03;;;;;;;13.30;7.65;;;;;;;;;;5107509;28;20045;-52
2022/12/06 11:52:29;;;;;;;15.20;8.48;;;;;;;;;;5090753;28;20110;-52
2022/12/06 11:54:57;;;;;;;13.90;7.53;;;;;;;;;;5112715;28;20102;-53
2022/12/06 11:57:24;;;;;;;13.80;7.93;;;;;;;;;;5112740;28;20474;-52
2022/12/06 12:00:10;;;;;;;15.13;9.00;;;;;;;;;;5109961;28;20024;-53
2022/12/06 12:02:36;;;;;;;14.10;8.48;;;;;;;;;;5113843;28;20034;-50
2022/12/06 12:05:25;;;;;;;12.90;7.80;;;;;;;;;;5113558;28;20020;-53
2022/12/06 12:07:56;;;;;;;13.73;7.65;;;;;;;;;;5094114;28;20130;-52
2022/12/06 12:10:25;;;;;;;11.50;6.53;;;;;;;;;;5092806;28;20042;-53
2022/12/06 12:15:36;;;;;;;11.55;6.22;;;;;;;;;;5112848;28;20398;-51
2022/12/06 12:18:03;;;;;;;9.48;6.00;;;;;;;;;;5113450;28;20567;-53
2022/12/06 12:20:39;;;;;;;9.80;6.13;;;;;;;;;;5110724;28;20027;-53
2022/12/06 12:23:14;;;;;;;11.15;6.63;;;;;;;;;;5112454;28;20031;-53
2022/12/06 12:25:42;;;;;;;13.93;7.10;;;;;;;;;;5112011;28;20552;-52
2022/12/06 12:28:25;;;;;;;13.52;7.40;;;;;;;;;;5112017;28;20020;-52
2022/12/06 12:30:52;;;;;;;14.05;7.55;;;;;;;;;;5111838;28;20522;-53
2022/12/06 12:33:19;;;;;;;12.15;7.13;;;;;;;;;;5111966;28;20479;-52
2022/12/06 12:35:47;;;;;;;12.68;6.82;;;;;;;;;;5111675;28;20061;-53
2022/12/06 12:38:21;;;;;;;13.60;6.80;;;;;;;;;;5111936;28;20023;-52
2022/12/06 12:40:50;;;;;;;18.65;9.95;;;;;;;;;;5111606;28;20564;-54
2022/12/06 12:43:20;;;;;;;17.63;9.30;;;;;;;;;;5111581;28;20020;-51
2022/12/06 12:46:05;;;;;;;14.98;7.72;;;;;;;;;;5111460;28;20026;-53
2022/12/06 12:48:31;;;;;;;13.57;7.57;;;;;;;;;;5111644;28;20026;-50
2022/12/06 12:50:58;;;;;;;13.80;7.47;;;;;;;;;;5111571;28;20103;-52
2022/12/06 12:53:29;;;;;;;13.98;8.23;;;;;;;;;;5090802;28;20031;-54
2022/12/06 12:56:05;;;;;;;15.98;8.88;;;;;;;;;;5091064;28;20027;-52
2022/12/06 12:58:31;;;;;;;16.75;8.18;;;;;;;;;;5091098;28;20020;-52
2022/12/06 13:01:01;;;;;;;14.68;8.13;;;;;;;;;;5090919;28;20032;-52
2022/12/06 13:03:27;;;;;;;16.17;8.27;;;;;;;;;;5090634;28;20115;-53
2022/12/06 13:05:53;;;;;;;16.70;8.65;;;;;;;;;;5090737;28;20072;-49
2022/12/06 13:08:21;;;;;;;16.65;8.50;;;;;;;;;;5090968;28;20028;-52
2022/12/06 13:10:48;;;;;;;15.93;8.48;;;;;;;;;;5090551;28;20036;-54
2022/12/06 13:13:24;;;;;;;13.50;7.82;;;;;;;;;;5090676;28;20032;-52
2022/12/06 13:15:52;;;;;;;19.20;9.93;;;;;;;;;;5090511;28;20032;-49
2022/12/06 13:18:25;;;;;;;16.63;9.38;;;;;;;;;;5090477;28;20103;-52
2022/12/06 13:20:53;;;;;;;17.17;9.10;;;;;;;;;;5090495;28;20024;-52
2022/12/06 13:23:20;;;;;;;22.75;9.88;;;;;;;;;;5090441;28;20053;-54
2022/12/06 13:26:06;;;;;;;33.92;14.50;;;;;;;;;;5090255;28;20095;-52
2022/12/06 13:28:35;;;;;;;34.85;14.68;;;;;;;;;;5090603;28;20040;-52
2022/12/06 13:31:03;;;;;;;33.25;15.23;;;;;;;;;;5090224;28;20081;-53
2022/12/06 13:33:32;;;;;;;26.08;12.57;;;;;;;;;;5089858;28;20020;-52
2022/12/06 13:35:58;;;;;;;30.98;14.32;;;;;;;;;;5097800;28;20028;-54
2022/12/06 13:38:29;;;;;;;27.40;12.93;;;;;;;;;;5110805;28;20027;-53
2022/12/06 13:41:02;;;;;;;25.65;12.60;;;;;;;;;;5110533;28;20077;-53
2022/12/06 13:43:28;;;;;;;24.23;11.50;;;;;;;;;;5110368;28;20016;-53
2022/12/06 13:46:00;;;;;;;22.02;11.15;;;;;;;;;;5110296;28;20491;-53
2022/12/06 13:48:26;;;;;;;22.92;11.38;;;;;;;;;;5110371;28;20031;-52
2022/12/06 13:50:55;;;;;;;21.65;11.38;;;;;;;;;;5110308;28;20020;-50
2022/12/06 13:53:22;;;;;;;21.83;10.07;;;;;;;;;;5099099;28;20487;-53
2022/12/06 13:55:53;;;;;;;17.40;8.73;;;;;;;;;;5089162;28;20604;-49
2022/12/06 13:58:20;;;;;;;16.67;8.68;;;;;;;;;;5089854;28;20503;-53
2022/12/06 14:00:48;;;;;;;14.23;8.02;;;;;;;;;;5071380;28;20504;-51
2022/12/06 14:03:16;;;;;;;16.55;8.80;;;;;;;;;;5089544;28;20502;-53
2022/12/06 14:06:01;;;;;;;17.77;9.73;;;;;;;;;;5089775;28;20028;-52
2022/12/06 14:08:30;;;;;;;15.15;9.07;;;;;;;;;;5089742;28;20024;-51
2022/12/06 14:11:14;;;;;;;15.82;8.30;;;;;;;;;;5089572;28;20300;-53
2022/12/06 14:13:43;;;;;;;14.77;8.05;;;;;;;;;;5089454;28;20089;-53
2022/12/06 14:16:13;;;;;;;14.20;8.38;;;;;;;;;;5088989;28;20036;-53
2022/12/06 14:18:40;;;;;;;13.48;7.60;;;;;;;;;;5089463;28;20134;-51
2022/12/06 14:21:17;;;;;;;13.50;8.27;;;;;;;;;;5089355;28;20415;-53
2022/12/06 14:23:45;;;;;;;16.90;9.65;;;;;;;;;;5089240;28;20035;-53
2022/12/06 14:26:22;;;;;;;15.07;8.38;;;;;;;;;;5089219;28;20020;-50
2022/12/06 14:28:49;;;;;;;14.25;8.52;;;;;;;;;;5089175;28;20398;-53
2022/12/06 14:31:23;;;;;;;15.20;8.80;;;;;;;;;;5089627;28;20031;-50
2022/12/06 14:33:49;;;;;;;13.32;7.03;;;;;;;;;;5089037;28;20524;-54
2022/12/06 14:36:36;;;;;;;13.93;7.95;;;;;;;;;;5099221;28;20111;-55
2022/12/06 14:39:06;;;;;;;12.90;6.97;;;;;;;;;;5109631;28;20107;-53
2022/12/06 14:44:26;;;;;;;10.85;7.05;;;;;;;;;;5109106;28;20115;-53
2022/12/06 14:46:54;;;;;;;11.45;6.47;;;;;;;;;;5109065;28;20133;-52
2022/12/06 14:52:19;;;;;;;12.88;7.78;;;;;;;;;;5109815;28;20089;-50
2022/12/06 14:54:46;;;;;;;12.10;7.38;;;;;;;;;;5094385;28;20075;-54
2022/12/06 14:57:18;;;;;;;12.80;7.32;;;;;;;;;;5088126;28;20059;-51
2022/12/06 14:59:44;;;;;;;9.88;6.38;;;;;;;;;;5088716;28;20066;-53
2022/12/06 15:02:21;;;;;;;12.10;7.40;;;;;;;;;;5088616;28;20127;-53
2022/12/06 15:04:47;;;;;;;12.63;7.82;;;;;;;;;;5088649;28;20062;-52
2022/12/06 15:07:32;;;;;;;11.73;7.10;;;;;;;;;;5088656;28;20032;-55
2022/12/06 15:10:07;;;;;;;10.10;6.63;;;;;;;;;;5088671;28;20038;-52
2022/12/06 15:15:32;;;;;;;10.30;6.68;;;;;;;;;;5088677;28;20034;-53
2022/12/06 15:18:04;;;;;;;11.70;6.65;;;;;;;;;;5088328;28;20050;-54
2022/12/06 15:20:31;;;;;;;9.43;5.97;;;;;;;;;;5088710;28;20030;-54
2022/12/06 15:22:58;;;;;;;11.45;6.60;;;;;;;;;;5088375;28;20032;-53
2022/12/06 15:25:24;;;;;;;10.20;6.50;;;;;;;;;;5088587;28;20363;-53
2022/12/06 15:27:50;;;;;;;10.10;6.20;;;;;;;;;;5090638;28;20115;-51
2022/12/06 15:30:17;;;;;;;8.10;5.15;;;;;;;;;;5092608;28;20396;-50
2022/12/06 15:32:43;;;;;;;9.10;5.90;;;;;;;;;;5092154;28;20024;-53
2022/12/06 15:35:16;;;;;;;10.27;6.15;;;;;;;;;;5093629;28;20027;-53
2022/12/06 15:37:42;;;;;;;10.67;6.13;;;;;;;;;;5113027;28;20031;-53
2022/12/06 15:40:08;;;;;;;10.45;6.13;;;;;;;;;;5112917;28;20027;-53
2022/12/06 15:42:34;;;;;;;8.95;5.68;;;;;;;;;;5112875;28;20031;-52
2022/12/06 15:45:00;;;;;;;10.18;6.18;;;;;;;;;;5112468;28;20067;-52
2022/12/06 15:47:26;;;;;;;10.55;5.95;;;;;;;;;;5112472;28;20047;-52
2022/12/06 15:49:56;;;;;;;9.35;5.80;;;;;;;;;;5112851;28;20509;-54
2022/12/06 15:52:23;;;;;;;8.88;5.65;;;;;;;;;;5112688;28;20526;-53
2022/12/06 15:54:50;;;;;;;10.02;5.90;;;;;;;;;;5106714;28;20024;-53
2022/12/06 15:57:16;;;;;;;10.07;5.55;;;;;;;;;;5091009;28;20402;-54
2022/12/06 15:59:43;;;;;;;9.98;6.43;;;;;;;;;;5091879;28;20403;-50
2022/12/06 16:02:14;;;;;;;8.82;5.88;;;;;;;;;;5092048;28;20048;-52
2022/12/06 16:04:40;;;;;;;9.45;5.53;;;;;;;;;;5092007;28;20036;-54
2022/12/06 16:07:06;;;;;;;10.35;6.15;;;;;;;;;;5101727;28;20061;-53
2022/12/06 16:09:32;;;;;;;12.27;7.22;;;;;;;;;;5096349;28;20369;-51
2022/12/06 16:11:58;;;;;;;14.27;7.93;;;;;;;;;;5092245;28;20023;-54
2022/12/06 16:14:24;;;;;;;15.32;9.38;;;;;;;;;;5098737;28;20028;-51
2022/12/06 16:16:50;;;;;;;13.45;8.85;;;;;;;;;;5111797;28;20027;-50
2022/12/06 16:19:16;;;;;;;13.60;8.35;;;;;;;;;;5111801;28;20130;-52
2022/12/06 16:21:53;;;;;;;13.10;7.20;;;;;;;;;;5111875;28;20028;-51
2022/12/06 16:24:19;;;;;;;12.70;7.65;;;;;;;;;;5111549;28;20035;-51
2022/12/06 16:26:45;;;;;;;11.00;6.68;;;;;;;;;;5111847;28;20028;-53
2022/12/06 16:29:12;;;;;;;11.38;6.93;;;;;;;;;;5112114;28;20031;-53
2022/12/06 16:31:39;;;;;;;10.63;6.57;;;;;;;;;;5108701;28;20016;-53
2022/12/06 16:34:06;;;;;;;10.27;6.70;;;;;;;;;;5100208;28;20024;-53
2022/12/06 16:36:32;;;;;;;10.55;6.18;;;;;;;;;;5099001;28;20027;-53
2022/12/06 16:38:59;;;;;;;11.82;7.40;;;;;;;;;;5099690;28;20406;-52
2022/12/06 16:41:29;;;;;;;11.45;7.05;;;;;;;;;;5111661;28;20027;-54
2022/12/06 16:43:56;;;;;;;12.43;7.35;;;;;;;;;;5096591;28;20032;-54
2022/12/06 16:46:23;;;;;;;12.80;6.93;;;;;;;;;;5073355;28;20114;-50
2022/12/06 16:48:58;;;;;;;10.63;6.90;;;;;;;;;;5091152;28;20032;-54
2022/12/06 16:51:25;;;;;;;10.88;6.63;;;;;;;;;;5104444;28;20065;-52
2022/12/06 16:53:52;;;;;;;10.00;6.53;;;;;;;;;;5100377;28;20071;-54
2022/12/06 16:56:19;;;;;;;10.68;6.22;;;;;;;;;;5097326;28;20027;-55
2022/12/06 16:58:46;;;;;;;10.02;6.22;;;;;;;;;;5101706;28;20668;-55
2022/12/06 17:01:38;;;;;;;9.88;6.07;;;;;;;;;;5110473;28;20027;-55
2022/12/06 17:04:07;;;;;;;9.20;6.25;;;;;;;;;;5100160;28;20513;-53
2022/12/06 17:06:34;;;;;;;9.15;5.63;;;;;;;;;;5097121;28;20027;-54
2022/12/06 17:09:00;;;;;;;9.70;6.03;;;;;;;;;;5111247;28;20034;-54
2022/12/06 17:14:21;;;;;;;8.43;5.32;;;;;;;;;;5109059;28;20118;-55
2022/12/06 17:16:47;;;;;;;7.43;5.30;;;;;;;;;;5096838;28;20543;-54
2022/12/06 17:19:17;;;;;;;7.95;5.43;;;;;;;;;;5095204;28;20050;-54
2022/12/06 17:21:43;;;;;;;9.02;5.68;;;;;;;;;;5090453;28;20024;-54
2022/12/06 17:24:09;;;;;;;8.27;5.38;;;;;;;;;;5094313;28;20035;-54
2022/12/06 17:26:36;;;;;;;10.35;5.82;;;;;;;;;;5097660;28;20659;-52
2022/12/06 17:29:03;;;;;;;10.25;5.35;;;;;;;;;;5109069;28;20564;-54
2022/12/06 17:31:29;;;;;;;9.02;5.78;;;;;;;;;;5108278;28;20023;-54
2022/12/06 17:33:57;;;;;;;8.98;5.57;;;;;;;;;;5106733;28;20039;-54
2022/12/06 17:36:24;;;;;;;9.15;6.20;;;;;;;;;;5105919;27;20032;-54
2022/12/06 17:38:51;;;;;;;7.68;5.28;;;;;;;;;;5095123;28;20446;-54
2022/12/06 17:44:03;;;;;;;8.38;5.40;;;;;;;;;;5107198;28;20043;-54
2022/12/06 17:46:30;;;;;;;8.73;5.80;;;;;;;;;;5103102;28;20016;-54
2022/12/06 17:48:56;;;;;;;10.20;6.45;;;;;;;;;;5110194;28;20513;-55
2022/12/06 17:51:24;;;;;;;11.90;7.03;;;;;;;;;;5099183;28;20436;-54
2022/12/06 17:53:50;;;;;;;16.15;9.23;;;;;;;;;;5110300;28;20107;-54
2022/12/06 17:56:32;;;;;;;18.58;10.27;;;;;;;;;;5096293;28;20498;-53
2022/12/06 17:58:59;;;;;;;16.23;9.55;;;;;;;;;;5080953;28;20456;-54
2022/12/06 18:01:25;;;;;;;17.92;9.55;;;;;;;;;;5104353;28;20083;-53
2022/12/06 18:03:52;;;;;;;14.32;8.75;;;;;;;;;;5099467;28;20035;-55
2022/12/06 18:06:21;;;;;;;17.67;10.20;;;;;;;;;;5108165;28;20011;-54
2022/12/06 18:08:47;;;;;;;20.77;10.57;;;;;;;;;;5109814;28;20170;-55
2022/12/06 18:11:15;;;;;;;17.30;9.10;;;;;;;;;;5108777;28;20031;-53
2022/12/06 18:13:42;;;;;;;16.38;8.77;;;;;;;;;;5089444;28;20039;-52
2022/12/06 18:16:18;;;;;;;16.35;8.65;;;;;;;;;;5100876;28;20024;-54
2022/12/06 18:18:45;;;;;;;16.35;8.77;;;;;;;;;;5090381;28;20020;-54
2022/12/06 18:21:12;;;;;;;18.27;9.52;;;;;;;;;;5099282;28;20039;-53
2022/12/06 18:23:38;;;;;;;21.58;10.18;;;;;;;;;;5108138;28;20483;-54
2022/12/06 18:26:05;;;;;;;27.52;12.00;;;;;;;;;;5109756;28;20019;-53
2022/12/06 18:28:31;;;;;;;21.38;10.00;;;;;;;;;;5109129;28;20024;-54
2022/12/06 18:30:58;;;;;;;18.60;9.80;;;;;;;;;;5095261;28;20034;-55
2022/12/06 18:33:24;;;;;;;17.33;9.48;;;;;;;;;;5098499;28;20024;-54
2022/12/06 18:35:51;;;;;;;18.58;9.90;;;;;;;;;;5099383;28;20032;-50
2022/12/06 18:38:18;;;;;;;15.50;8.65;;;;;;;;;;5106957;28;20024;-54
2022/12/06 18:40:44;;;;;;;14.80;8.60;;;;;;;;;;5094360;28;20051;-54
2022/12/06 18:43:12;;;;;;;12.75;7.55;;;;;;;;;;5094631;28;20117;-52
2022/12/06 18:45:38;;;;;;;12.00;6.95;;;;;;;;;;5092053;28;20275;-54
2022/12/06 18:48:04;;;;;;;13.73;8.23;;;;;;;;;;5101493;28;20034;-51
2022/12/06 18:50:31;;;;;;;14.90;8.82;;;;;;;;;;5107689;28;20023;-55
2022/12/06 18:52:57;;;;;;;13.18;8.18;;;;;;;;;;5108792;28;20081;-55
2022/12/06 18:55:23;;;;;;;16.00;8.48;;;;;;;;;;5109050;28;20506;-55
2022/12/06 18:57:50;;;;;;;11.70;6.95;;;;;;;;;;5097138;28;20032;-55
2022/12/06 19:00:16;;;;;;;13.35;7.97;;;;;;;;;;5082517;28;20410;-56
2022/12/06 19:02:42;;;;;;;12.82;7.43;;;;;;;;;;5104932;28;20040;-54
2022/12/06 19:05:08;;;;;;;11.75;7.45;;;;;;;;;;5105981;28;20028;-55
2022/12/06 19:07:35;;;;;;;11.30;7.13;;;;;;;;;;5109043;28;20027;-54
2022/12/06 19:10:01;;;;;;;9.98;6.38;;;;;;;;;;5102884;28;20034;-54
2022/12/06 19:12:27;;;;;;;10.20;6.97;;;;;;;;;;5108770;28;20795;-53
2022/12/06 19:14:54;;;;;;;13.50;8.23;;;;;;;;;;5096957;28;20053;-54
2022/12/06 19:17:20;;;;;;;13.45;8.70;;;;;;;;;;5094849;28;20031;-54
2022/12/06 19:19:46;;;;;;;12.60;8.05;;;;;;;;;;5096097;28;20023;-53
2022/12/06 19:22:12;;;;;;;13.60;8.85;;;;;;;;;;5090953;28;20750;-53
2022/12/06 19:24:38;;;;;;;15.23;9.30;;;;;;;;;;5121068;28;20024;-54
2022/12/06 19:27:04;;;;;;;15.98;9.48;;;;;;;;;;5109931;28;20514;-54
2022/12/06 19:29:30;;;;;;;18.58;10.25;;;;;;;;;;5092486;28;20105;-54
2022/12/06 19:31:56;;;;;;;20.27;11.27;;;;;;;;;;5095266;28;20063;-53
2022/12/06 19:34:23;;;;;;;22.02;12.40;;;;;;;;;;5104642;28;20055;-53
2022/12/06 19:36:51;;;;;;;26.05;14.43;;;;;;;;;;5089825;28;20040;-55
2022/12/06 19:39:17;;;;;;;26.33;14.48;;;;;;;;;;5094656;28;20028;-54
2022/12/06 19:44:28;;;;;;;20.25;11.68;;;;;;;;;;5096377;28;20039;-54
2022/12/06 19:46:54;;;;;;;19.80;11.05;;;;;;;;;;5088963;28;20119;-54
2022/12/06 19:49:22;;;;;;;16.80;10.38;;;;;;;;;;5099928;28;20012;-54
2022/12/06 19:51:49;;;;;;;14.68;9.48;;;;;;;;;;5088745;28;20033;-54
2022/12/06 19:54:17;;;;;;;17.00;10.13;;;;;;;;;;5101318;28;20051;-54
2022/12/06 19:56:44;;;;;;;19.05;11.20;;;;;;;;;;5096795;28;20039;-54
2022/12/06 19:59:10;;;;;;;16.98;9.45;;;;;;;;;;5090842;28;20490;-55
2022/12/06 20:01:37;;;;;;;20.40;12.27;;;;;;;;;;5105014;28;20024;-53
2022/12/06 20:04:03;;;;;;;20.45;12.15;;;;;;;;;;5109091;28;20040;-55
2022/12/06 20:06:29;;;;;;;21.23;12.18;;;;;;;;;;5100205;28;20024;-55
2022/12/06 20:08:58;;;;;;;20.15;11.77;;;;;;;;;;5089099;28;20601;-55